SCX8012 KDLH-KMSP
Flight info
| Callsign | SCX8012 |
|---|---|
| Flight time | 0h 35m |
| Altitude | 22000 |
| Route | BAINY BAINY4 |
| Aircraft | B738/M-SDE2E3FGHIRWXY/LB1 |
Departure
| Time | 2026-04-21 23:30 |
|---|---|
| Airport | Duluth International Airport (KDLH) |
Arrival
| Time | 2026-04-22 00:05 |
|---|---|
| Airport | Minneapolis–Saint Paul International Airport / Wold–Chamberlain Field (KMSP) |
| Time | Latitude | Longitude | Altitude | Speed | Heading |
|---|---|---|---|---|---|
| 2026-04-21 23:00 | 46.83898 | -92.18031 | 1427 ft | 0 kts | 181° |
| 2026-04-21 23:13 | 46.83901 | -92.18031 | 1427 ft | 2 kts | 182° |
| 2026-04-21 23:13 | 46.83924 | -92.18026 | 1427 ft | 3 kts | 214° |
| 2026-04-21 23:13 | 46.83934 | -92.18009 | 1427 ft | 3 kts | 270° |
| 2026-04-21 23:14 | 46.83934 | -92.17995 | 1427 ft | 3 kts | 273° |
| 2026-04-21 23:14 | 46.83933 | -92.17973 | 1427 ft | 1 kts | 274° |
| 2026-04-21 23:14 | 46.83933 | -92.17972 | 1427 ft | 1 kts | 274° |
| 2026-04-21 23:21 | 46.83935 | -92.17993 | 1427 ft | 5 kts | 286° |
| 2026-04-21 23:21 | 46.83967 | -92.18055 | 1427 ft | 11 kts | 311° |
| 2026-04-21 23:21 | 46.84012 | -92.18165 | 1427 ft | 13 kts | 279° |
| 2026-04-21 23:22 | 46.84009 | -92.18304 | 1427 ft | 14 kts | 271° |
| 2026-04-21 23:22 | 46.84011 | -92.18433 | 1429 ft | 11 kts | 267° |
| 2026-04-21 23:22 | 46.84012 | -92.18556 | 1427 ft | 13 kts | 272° |
| 2026-04-21 23:22 | 46.84015 | -92.18692 | 1427 ft | 13 kts | 272° |
| 2026-04-21 23:23 | 46.84019 | -92.18823 | 1428 ft | 13 kts | 272° |
| 2026-04-21 23:23 | 46.84022 | -92.18951 | 1428 ft | 12 kts | 272° |
| 2026-04-21 23:23 | 46.84026 | -92.19076 | 1428 ft | 13 kts | 272° |
| 2026-04-21 23:23 | 46.84029 | -92.19207 | 1429 ft | 13 kts | 272° |
| 2026-04-21 23:24 | 46.84033 | -92.19343 | 1429 ft | 13 kts | 272° |
| 2026-04-21 23:24 | 46.84037 | -92.19475 | 1429 ft | 13 kts | 272° |
| 2026-04-21 23:24 | 46.84041 | -92.19606 | 1430 ft | 14 kts | 272° |
| 2026-04-21 23:24 | 46.84045 | -92.19759 | 1430 ft | 16 kts | 272° |
| 2026-04-21 23:25 | 46.84049 | -92.19934 | 1431 ft | 17 kts | 272° |
| 2026-04-21 23:25 | 46.84011 | -92.20062 | 1431 ft | 15 kts | 226° |
| 2026-04-21 23:25 | 46.83967 | -92.20187 | 1431 ft | 14 kts | 271° |
| 2026-04-21 23:25 | 46.83971 | -92.20337 | 1432 ft | 15 kts | 272° |
| 2026-04-21 23:26 | 46.83975 | -92.20501 | 1432 ft | 17 kts | 272° |
| 2026-04-21 23:26 | 46.83980 | -92.20687 | 1433 ft | 19 kts | 272° |
| 2026-04-21 23:26 | 46.83986 | -92.20886 | 1433 ft | 20 kts | 272° |
| 2026-04-21 23:26 | 46.83992 | -92.21082 | 1433 ft | 19 kts | 272° |
| 2026-04-21 23:27 | 46.84018 | -92.21269 | 1434 ft | 18 kts | 283° |
| 2026-04-21 23:27 | 46.84045 | -92.21449 | 1435 ft | 18 kts | 282° |
| 2026-04-21 23:27 | 46.84072 | -92.21622 | 1435 ft | 17 kts | 283° |
| 2026-04-21 23:27 | 46.84098 | -92.21789 | 1436 ft | 17 kts | 283° |
| 2026-04-21 23:28 | 46.84117 | -92.21908 | 1436 ft | 8 kts | 285° |
| 2026-04-21 23:28 | 46.84141 | -92.21969 | 1436 ft | 6 kts | 319° |
| 2026-04-21 23:28 | 46.84182 | -92.21985 | 1436 ft | 7 kts | 358° |
| 2026-04-21 23:28 | 46.84232 | -92.21982 | 1435 ft | 6 kts | 14° |
| 2026-04-21 23:29 | 46.84244 | -92.21930 | 1436 ft | 6 kts | 92° |
| 2026-04-21 23:29 | 46.84242 | -92.21840 | 1436 ft | 19 kts | 92° |
| 2026-04-21 23:29 | 46.84229 | -92.21362 | 1436 ft | 82 kts | 92° |
| 2026-04-21 23:29 | 46.84197 | -92.20212 | 1431 ft | 142 kts | 92° |
| 2026-04-21 23:30 | 46.84164 | -92.18574 | 1634 ft | 172 kts | 93° |
| 2026-04-21 23:30 | 46.84150 | -92.16819 | 2348 ft | 176 kts | 94° |
| 2026-04-21 23:30 | 46.84197 | -92.14999 | 3041 ft | 180 kts | 93° |
| 2026-04-21 23:30 | 46.84203 | -92.13095 | 3518 ft | 200 kts | 102° |
| 2026-04-21 23:31 | 46.83565 | -92.11252 | 3862 ft | 209 kts | 143° |
| 2026-04-21 23:31 | 46.82254 | -92.10489 | 4379 ft | 205 kts | 186° |
| 2026-04-21 23:31 | 46.80925 | -92.11158 | 4881 ft | 207 kts | 214° |
| 2026-04-21 23:31 | 46.79609 | -92.12263 | 5064 ft | 232 kts | 212° |
| 2026-04-21 23:32 | 46.78280 | -92.13625 | 5514 ft | 239 kts | 227° |
| 2026-04-21 23:32 | 46.77125 | -92.15451 | 6129 ft | 249 kts | 232° |
| 2026-04-21 23:32 | 46.75956 | -92.17401 | 6790 ft | 258 kts | 234° |
| 2026-04-21 23:32 | 46.74764 | -92.19363 | 7620 ft | 260 kts | 233° |
| 2026-04-21 23:33 | 46.73539 | -92.21362 | 8290 ft | 270 kts | 233° |
| 2026-04-21 23:33 | 46.72280 | -92.23390 | 9019 ft | 276 kts | 233° |
| 2026-04-21 23:33 | 46.70963 | -92.25489 | 9718 ft | 284 kts | 233° |
| 2026-04-21 23:33 | 46.69613 | -92.27621 | 10379 ft | 292 kts | 233° |
| 2026-04-21 23:34 | 46.68177 | -92.29886 | 10567 ft | 317 kts | 232° |
| 2026-04-21 23:34 | 46.66621 | -92.32327 | 10726 ft | 339 kts | 232° |
| 2026-04-21 23:34 | 46.64967 | -92.34905 | 11021 ft | 355 kts | 231° |
| 2026-04-21 23:34 | 46.63264 | -92.37539 | 11673 ft | 359 kts | 231° |
| 2026-04-21 23:35 | 46.61544 | -92.40188 | 12436 ft | 361 kts | 231° |
| 2026-04-21 23:35 | 46.59811 | -92.42853 | 13194 ft | 364 kts | 231° |
| 2026-04-21 23:35 | 46.58062 | -92.45542 | 13915 ft | 367 kts | 231° |
| 2026-04-21 23:35 | 46.56301 | -92.48250 | 14606 ft | 371 kts | 231° |
| 2026-04-21 23:36 | 46.54523 | -92.50981 | 15329 ft | 373 kts | 231° |
| 2026-04-21 23:36 | 46.52753 | -92.53699 | 16020 ft | 377 kts | 232° |
| 2026-04-21 23:36 | 46.50918 | -92.56514 | 16718 ft | 380 kts | 232° |
| 2026-04-21 23:36 | 46.49111 | -92.59285 | 17382 ft | 384 kts | 232° |
| 2026-04-21 23:37 | 46.47266 | -92.62109 | 18077 ft | 387 kts | 232° |
| 2026-04-21 23:37 | 46.45408 | -92.64951 | 18667 ft | 391 kts | 232° |
| 2026-04-21 23:37 | 46.43525 | -92.67828 | 19245 ft | 394 kts | 232° |
| 2026-04-21 23:37 | 46.41637 | -92.70710 | 19823 ft | 397 kts | 232° |
| 2026-04-21 23:38 | 46.39721 | -92.73630 | 20399 ft | 400 kts | 232° |
| 2026-04-21 23:38 | 46.37794 | -92.76564 | 20949 ft | 403 kts | 232° |
| 2026-04-21 23:38 | 46.35850 | -92.79522 | 21460 ft | 407 kts | 232° |
| 2026-04-21 23:38 | 46.33890 | -92.82501 | 21905 ft | 411 kts | 232° |
| 2026-04-21 23:39 | 46.31902 | -92.85521 | 21960 ft | 418 kts | 232° |
| 2026-04-21 23:39 | 46.29879 | -92.88590 | 21975 ft | 424 kts | 232° |
| 2026-04-21 23:39 | 46.27834 | -92.91687 | 21960 ft | 424 kts | 232° |
| 2026-04-21 23:39 | 46.25797 | -92.94761 | 21959 ft | 422 kts | 232° |
| 2026-04-21 23:40 | 46.23761 | -92.97832 | 21965 ft | 422 kts | 232° |
| 2026-04-21 23:40 | 46.21729 | -93.00896 | 21968 ft | 422 kts | 232° |
| 2026-04-21 23:40 | 46.19699 | -93.03954 | 21969 ft | 422 kts | 232° |
| 2026-04-21 23:40 | 46.17695 | -93.06972 | 21967 ft | 422 kts | 232° |
| 2026-04-21 23:41 | 46.15666 | -93.10024 | 21975 ft | 422 kts | 232° |
| 2026-04-21 23:41 | 46.13626 | -93.13089 | 21980 ft | 423 kts | 232° |
| 2026-04-21 23:41 | 46.11588 | -93.16147 | 21979 ft | 423 kts | 232° |
| 2026-04-21 23:41 | 46.09546 | -93.19208 | 21989 ft | 423 kts | 232° |
| 2026-04-21 23:42 | 46.07502 | -93.22268 | 21992 ft | 423 kts | 231° |
| 2026-04-21 23:42 | 46.05456 | -93.25328 | 21994 ft | 424 kts | 231° |
| 2026-04-21 23:42 | 46.03406 | -93.28390 | 21994 ft | 424 kts | 231° |
| 2026-04-21 23:42 | 46.01362 | -93.31440 | 21997 ft | 424 kts | 231° |
| 2026-04-21 23:43 | 45.99310 | -93.34498 | 22000 ft | 424 kts | 231° |
| 2026-04-21 23:43 | 45.97267 | -93.37539 | 22007 ft | 424 kts | 231° |
| 2026-04-21 23:43 | 45.95219 | -93.40585 | 22013 ft | 424 kts | 231° |
| 2026-04-21 23:43 | 45.93194 | -93.43593 | 21996 ft | 424 kts | 231° |
| 2026-04-21 23:44 | 45.91141 | -93.46639 | 22002 ft | 424 kts | 231° |
| 2026-04-21 23:44 | 45.89090 | -93.49680 | 22001 ft | 424 kts | 231° |
| 2026-04-21 23:44 | 45.87036 | -93.52721 | 21986 ft | 424 kts | 231° |
| 2026-04-21 23:44 | 45.84986 | -93.55753 | 21984 ft | 424 kts | 231° |
| 2026-04-21 23:45 | 45.82944 | -93.58767 | 21961 ft | 411 kts | 231° |
| 2026-04-21 23:45 | 45.79125 | -93.64375 | 21941 ft | 377 kts | 231° |
| 2026-04-21 23:45 | 45.77031 | -93.66715 | 21945 ft | 390 kts | 213° |
| 2026-04-21 23:46 | 45.74428 | -93.67962 | 21824 ft | 402 kts | 194° |
| 2026-04-21 23:46 | 45.71618 | -93.67918 | 21508 ft | 409 kts | 173° |
| 2026-04-21 23:46 | 45.68894 | -93.66690 | 21096 ft | 410 kts | 163° |
| 2026-04-21 23:46 | 45.66282 | -93.65209 | 20643 ft | 408 kts | 161° |
| 2026-04-21 23:47 | 45.63659 | -93.63712 | 20185 ft | 404 kts | 162° |
| 2026-04-21 23:47 | 45.61034 | -93.62270 | 19736 ft | 401 kts | 163° |
| 2026-04-21 23:47 | 45.58434 | -93.60879 | 19292 ft | 399 kts | 163° |
| 2026-04-21 23:47 | 45.55840 | -93.59486 | 18856 ft | 396 kts | 162° |
| 2026-04-21 23:48 | 45.53270 | -93.58093 | 18418 ft | 394 kts | 162° |
| 2026-04-21 23:48 | 45.50722 | -93.56709 | 17938 ft | 392 kts | 162° |
| 2026-04-21 23:48 | 45.48175 | -93.55323 | 17457 ft | 390 kts | 162° |
| 2026-04-21 23:48 | 45.45653 | -93.53949 | 17056 ft | 385 kts | 162° |
| 2026-04-21 23:49 | 45.43163 | -93.52600 | 16626 ft | 382 kts | 162° |
| 2026-04-21 23:49 | 45.40685 | -93.51261 | 16188 ft | 379 kts | 162° |
| 2026-04-21 23:49 | 45.38228 | -93.49938 | 15765 ft | 376 kts | 162° |
| 2026-04-21 23:49 | 45.35787 | -93.48625 | 15340 ft | 374 kts | 162° |
| 2026-04-21 23:50 | 45.33365 | -93.47324 | 14922 ft | 371 kts | 162° |
| 2026-04-21 23:50 | 45.30949 | -93.46034 | 14484 ft | 369 kts | 162° |
| 2026-04-21 23:50 | 45.28551 | -93.44757 | 14069 ft | 367 kts | 162° |
| 2026-04-21 23:50 | 45.26152 | -93.43479 | 13636 ft | 366 kts | 161° |
| 2026-04-21 23:51 | 45.23807 | -93.42230 | 13176 ft | 364 kts | 161° |
| 2026-04-21 23:51 | 45.21417 | -93.40958 | 12850 ft | 358 kts | 161° |
| 2026-04-21 23:51 | 45.19152 | -93.39751 | 12687 ft | 348 kts | 161° |
| 2026-04-21 23:51 | 45.16915 | -93.38563 | 12546 ft | 338 kts | 161° |
| 2026-04-21 23:52 | 45.14740 | -93.37407 | 12376 ft | 325 kts | 161° |
| 2026-04-21 23:52 | 45.12666 | -93.36191 | 12061 ft | 323 kts | 158° |
| 2026-04-21 23:52 | 45.10621 | -93.34888 | 11746 ft | 321 kts | 158° |
| 2026-04-21 23:52 | 45.08587 | -93.33590 | 11427 ft | 319 kts | 158° |
| 2026-04-21 23:53 | 45.06566 | -93.32313 | 11108 ft | 318 kts | 158° |
| 2026-04-21 23:53 | 45.04502 | -93.31240 | 10768 ft | 314 kts | 172° |
| 2026-04-21 23:53 | 45.02353 | -93.30787 | 10472 ft | 311 kts | 176° |
| 2026-04-21 23:53 | 45.00215 | -93.30427 | 10211 ft | 308 kts | 176° |
| 2026-04-21 23:54 | 44.98108 | -93.30075 | 10067 ft | 301 kts | 176° |
| 2026-04-21 23:54 | 44.96038 | -93.29717 | 9802 ft | 299 kts | 176° |
| 2026-04-21 23:54 | 44.94005 | -93.29357 | 9491 ft | 298 kts | 175° |
| 2026-04-21 23:54 | 44.91948 | -93.28984 | 9189 ft | 297 kts | 175° |
| 2026-04-21 23:55 | 44.89899 | -93.28607 | 8890 ft | 296 kts | 175° |
| 2026-04-21 23:55 | 44.87863 | -93.28229 | 8593 ft | 295 kts | 175° |
| 2026-04-21 23:55 | 44.85845 | -93.27854 | 8447 ft | 288 kts | 175° |
| 2026-04-21 23:55 | 44.83888 | -93.27489 | 8317 ft | 280 kts | 175° |
| 2026-04-21 23:56 | 44.81981 | -93.27134 | 8196 ft | 273 kts | 175° |
| 2026-04-21 23:56 | 44.80124 | -93.26788 | 8060 ft | 265 kts | 175° |
| 2026-04-21 23:56 | 44.78403 | -93.25964 | 8008 ft | 262 kts | 146° |
| 2026-04-21 23:56 | 44.77138 | -93.24167 | 8000 ft | 259 kts | 122° |
| 2026-04-21 23:57 | 44.76196 | -93.22027 | 8007 ft | 256 kts | 120° |
| 2026-04-21 23:57 | 44.75290 | -93.19900 | 7923 ft | 256 kts | 120° |
| 2026-04-21 23:57 | 44.74352 | -93.17678 | 7311 ft | 269 kts | 120° |
| 2026-04-21 23:57 | 44.73395 | -93.15380 | 6721 ft | 276 kts | 119° |
| 2026-04-21 23:58 | 44.72456 | -93.13100 | 6559 ft | 259 kts | 119° |
| 2026-04-21 23:58 | 44.71583 | -93.10976 | 6418 ft | 242 kts | 119° |
| 2026-04-21 23:58 | 44.70774 | -93.09000 | 6305 ft | 224 kts | 119° |
| 2026-04-21 23:58 | 44.70207 | -93.07081 | 6170 ft | 205 kts | 92° |
| 2026-04-21 23:59 | 44.70462 | -93.05220 | 5915 ft | 191 kts | 54° |
| 2026-04-21 23:59 | 44.71377 | -93.03969 | 5652 ft | 181 kts | 32° |
| 2026-04-21 23:59 | 44.72408 | -93.02957 | 5365 ft | 181 kts | 31° |
| 2026-04-21 23:59 | 44.73432 | -93.01982 | 5092 ft | 179 kts | 31° |
| 2026-04-22 00:00 | 44.74466 | -93.01018 | 4821 ft | 178 kts | 31° |
| 2026-04-22 00:00 | 44.75590 | -93.00362 | 4565 ft | 174 kts | 8° |
| 2026-04-22 00:00 | 44.76791 | -93.00032 | 4281 ft | 176 kts | 9° |
| 2026-04-22 00:00 | 44.77938 | -93.00231 | 4027 ft | 164 kts | 323° |
| 2026-04-22 00:01 | 44.78702 | -93.01357 | 3891 ft | 164 kts | 316° |
| 2026-04-22 00:01 | 44.79516 | -93.02558 | 3660 ft | 172 kts | 311° |
| 2026-04-22 00:01 | 44.80258 | -93.03877 | 3442 ft | 172 kts | 309° |
| 2026-04-22 00:01 | 44.80931 | -93.05248 | 3209 ft | 168 kts | 305° |
| 2026-04-22 00:02 | 44.81338 | -93.06163 | 3063 ft | 164 kts | 304° |
| 2026-04-22 00:02 | 44.81924 | -93.07514 | 2860 ft | 162 kts | 304° |
| 2026-04-22 00:02 | 44.82509 | -93.08872 | 2667 ft | 165 kts | 304° |
| 2026-04-22 00:02 | 44.83100 | -93.10249 | 2452 ft | 159 kts | 304° |
| 2026-04-22 00:03 | 44.83661 | -93.11549 | 2223 ft | 152 kts | 304° |
| 2026-04-22 00:03 | 44.84194 | -93.12789 | 2074 ft | 146 kts | 303° |
| 2026-04-22 00:03 | 44.84721 | -93.14020 | 1820 ft | 148 kts | 303° |
| 2026-04-22 00:03 | 44.85265 | -93.15283 | 1691 ft | 152 kts | 304° |
| 2026-04-22 00:04 | 44.85811 | -93.16547 | 1452 ft | 150 kts | 304° |
| 2026-04-22 00:04 | 44.86345 | -93.17788 | 1266 ft | 146 kts | 303° |
| 2026-04-22 00:04 | 44.86858 | -93.18969 | 1055 ft | 140 kts | 302° |
| 2026-04-22 00:04 | 44.87361 | -93.20141 | 892 ft | 141 kts | 303° |
| 2026-04-22 00:05 | 44.87854 | -93.21279 | 831 ft | 125 kts | 302° |
| 2026-04-22 00:05 | 44.88244 | -93.22174 | 839 ft | 90 kts | 301° |
| 2026-04-22 00:05 | 44.88505 | -93.22775 | 832 ft | 52 kts | 301° |
| 2026-04-22 00:05 | 44.88623 | -93.23045 | 843 ft | 24 kts | 301° |
| 2026-04-22 00:06 | 44.88692 | -93.23199 | 849 ft | 12 kts | 311° |
| 2026-04-22 00:06 | 44.88764 | -93.23221 | 841 ft | 11 kts | 22° |
| 2026-04-22 00:06 | 44.88795 | -93.23198 | 837 ft | 0 kts | 31° |
| 2026-04-22 00:09 | 44.88797 | -93.23196 | 840 ft | 2 kts | 31° |
| 2026-04-22 00:09 | 44.88806 | -93.23175 | 845 ft | 3 kts | 89° |
| 2026-04-22 00:09 | 44.88792 | -93.23145 | 842 ft | 5 kts | 123° |
| 2026-04-22 00:09 | 44.88762 | -93.23076 | 840 ft | 11 kts | 121° |
| 2026-04-22 00:10 | 44.88708 | -93.22950 | 837 ft | 18 kts | 121° |
| 2026-04-22 00:10 | 44.88632 | -93.22775 | 836 ft | 23 kts | 121° |
| 2026-04-22 00:10 | 44.88540 | -93.22563 | 831 ft | 26 kts | 121° |
| 2026-04-22 00:10 | 44.88461 | -93.22380 | 830 ft | 13 kts | 121° |
| 2026-04-22 00:11 | 44.88414 | -93.22272 | 833 ft | 13 kts | 122° |
| 2026-04-22 00:11 | 44.88369 | -93.22167 | 834 ft | 13 kts | 122° |
| 2026-04-22 00:11 | 44.88321 | -93.22057 | 831 ft | 14 kts | 122° |
| 2026-04-22 00:11 | 44.88270 | -93.21940 | 835 ft | 14 kts | 121° |
| 2026-04-22 00:12 | 44.88219 | -93.21822 | 835 ft | 15 kts | 121° |
| 2026-04-22 00:12 | 44.88159 | -93.21683 | 826 ft | 15 kts | 121° |
| 2026-04-22 00:12 | 44.88120 | -93.21593 | 833 ft | 10 kts | 121° |
| 2026-04-22 00:12 | 44.88085 | -93.21512 | 832 ft | 9 kts | 121° |
| 2026-04-22 00:13 | 44.88047 | -93.21425 | 826 ft | 11 kts | 122° |
| 2026-04-22 00:13 | 44.88007 | -93.21334 | 830 ft | 11 kts | 121° |
| 2026-04-22 00:13 | 44.87972 | -93.21251 | 832 ft | 9 kts | 121° |
| 2026-04-22 00:13 | 44.87943 | -93.21185 | 832 ft | 8 kts | 121° |
| 2026-04-22 00:14 | 44.87948 | -93.21126 | 829 ft | 7 kts | 44° |
| 2026-04-22 00:14 | 44.87992 | -93.21102 | 829 ft | 7 kts | 18° |
| 2026-04-22 00:14 | 44.88032 | -93.21083 | 827 ft | 5 kts | 21° |
| 2026-04-22 00:14 | 44.88061 | -93.21066 | 833 ft | 4 kts | 22° |
| 2026-04-22 00:15 | 44.88082 | -93.21054 | 832 ft | 0 kts | 22° |
| 2026-04-22 00:15 | 44.88087 | -93.21052 | 832 ft | 0 kts | 22° |